This is the latest recevied weather packets stored in our database for station/object W7TRD. If no packets are shown the sender has not sent any weather packets the latest 10 day(s).
| Time | Temp. | Humidity | Pressure | Rain* | Wind** | Luminosity | Snow |
|---|---|---|---|---|---|---|---|
| 1777830371 | 25° C | 54% | 1012.5 hPa | 0 mm | - | 613 W/m² | - |
| 1777830068 | 24.44° C | 53% | 1012.7 hPa | 0 mm | - | 608 W/m² | - |
| 1777829763 | 23.89° C | 57% | 1012.7 hPa | 0 mm | - | 597 W/m² | - |
| 1777829459 | 23.89° C | 55% | 1012.5 hPa | 0 mm | - | 587 W/m² | - |
| 1777829156 | 23.33° C | 56% | 1012.7 hPa | 0 mm | - | 575 W/m² | - |
| 1777828854 | 23.33° C | 56% | 1012.8 hPa | 0 mm | - | 566 W/m² | - |
| 1777828550 | 22.78° C | 59% | 1012.9 hPa | 0 mm | - | 553 W/m² | - |
| 1777828248 | 22.22° C | 60% | 1012.7 hPa | 0 mm | - | 544 W/m² | - |
| 1777827944 | 22.78° C | 59% | 1012.9 hPa | 0 mm | - | 531 W/m² | - |
| 1777827641 | 21.67° C | 62% | 1012.8 hPa | 0 mm | - | 521 W/m² | - |
| 1777827339 | 22.78° C | 60% | 1013 hPa | 0 mm | - | 508 W/m² | - |
| 1777827035 | 21.67° C | 62% | 1013 hPa | 0 mm | - | 496 W/m² | - |
| 1777826732 | 21.67° C | 62% | 1013.1 hPa | 0 mm | - | 483 W/m² | - |
| 1777826428 | 21.67° C | 62% | 1013 hPa | 0 mm | - | 471 W/m² | - |
| 1777826126 | 21.11° C | 64% | 1013.2 hPa | 0 mm | - | 456 W/m² | - |
| 1777825823 | 21.11° C | 63% | 1013.2 hPa | 0 mm | - | 445 W/m² | - |
| 1777825520 | 21.11° C | 64% | 1013.1 hPa | 0 mm | - | 431 W/m² | - |
| 1777825218 | 21.11° C | 64% | 1013.2 hPa | 0 mm | - | 418 W/m² | - |
| 1777824914 | 20.56° C | 67% | 1013.3 hPa | 0 mm | - | 403 W/m² | - |
| 1777824610 | 20.56° C | 66% | 1013.4 hPa | 0 mm | - | 388 W/m² | - |
| 1777824308 | 20° C | 68% | 1013.4 hPa | 0 mm | - | 373 W/m² | - |
| 1777824003 | 18.89° C | 71% | 1013.3 hPa | 0 mm | - | 359 W/m² | - |
| 1777823700 | 18.89° C | 71% | 1013.3 hPa | 0 mm | - | 333 W/m² | - |
| 1777823396 | 18.89° C | 71% | 1013.4 hPa | 0 mm | - | 92 W/m² | - |
| 1777823095 | 18.89° C | 71% | 1013.2 hPa | 0 mm | - | 67 W/m² | - |
* Rain latest hour (hover to see other rain measurements)
** Current wind speed in m/s (hover to see current wind gust speed)